createdAt,value
2023-03-01T04:28:35.164Z,-1.70
2023-03-01T04:31:14.259Z,-1.60
2023-03-01T04:33:49.821Z,-1.60
2023-03-01T04:36:18.455Z,-1.60
2023-03-01T04:38:48.995Z,-1.60
2023-03-01T04:41:18.200Z,-1.60
2023-03-01T04:43:45.295Z,-1.50
2023-03-01T04:46:15.655Z,-1.50
2023-03-01T04:48:44.251Z,-1.50
2023-03-01T04:51:14.346Z,-1.50
2023-03-01T04:53:42.559Z,-1.50
2023-03-01T04:56:09.249Z,-1.40
2023-03-01T04:58:36.213Z,-1.40
2023-03-01T05:01:15.956Z,-1.30
2023-03-01T05:03:44.904Z,-1.30
2023-03-01T05:06:12.701Z,-1.30
2023-03-01T05:08:40.620Z,-1.30
2023-03-01T05:11:09.805Z,-1.30
2023-03-01T05:13:37.978Z,-1.20
2023-03-01T05:16:06.112Z,-1.10
2023-03-01T05:18:34.522Z,-1.00
2023-03-01T05:21:10.534Z,-1.00
2023-03-01T05:23:37.639Z,-1.00
2023-03-01T05:26:09.407Z,-1.00
2023-03-01T05:28:38.891Z,-1.00
2023-03-01T05:31:10.462Z,-0.90
2023-03-01T05:33:41.536Z,-1.00
2023-03-01T05:36:10.571Z,-0.90
2023-03-01T05:38:37.212Z,-0.90
2023-03-01T05:41:04.139Z,-0.80
2023-03-01T05:43:36.624Z,-0.70
2023-03-01T05:46:03.288Z,-0.80
2023-03-01T05:48:29.977Z,-0.80
2023-03-01T11:47:32.719Z,6.30
2023-03-01T11:50:14.510Z,6.10
2023-03-01T12:08:44.358Z,6.70
2023-03-01T12:14:19.561Z,6.80
2023-03-01T12:17:17.215Z,6.80
2023-03-01T12:20:10.813Z,6.60
2023-03-01T12:23:19.588Z,6.40
2023-03-01T12:26:14.480Z,6.50
2023-03-01T12:28:47.480Z,6.30
2023-03-01T12:31:26.394Z,6.50
2023-03-01T12:34:09.261Z,6.60
2023-03-01T12:36:54.555Z,6.70
2023-03-01T12:39:47.099Z,7.10
2023-03-01T12:42:26.227Z,7.10
2023-03-01T12:45:24.651Z,6.90
2023-03-01T12:48:13.108Z,7.10
2023-03-01T12:50:52.208Z,7.10
2023-03-01T12:55:53.088Z,6.80
2023-03-01T12:58:43.636Z,6.60
2023-03-01T13:01:34.027Z,6.90
2023-03-01T13:04:19.103Z,7.10
2023-03-01T13:06:56.058Z,7.00
2023-03-01T13:10:03.565Z,7.20
2023-03-01T13:12:53.443Z,7.40
2023-03-01T13:15:22.826Z,7.30
2023-03-01T13:17:57.928Z,7.30
2023-03-01T13:20:35.793Z,7.50
2023-03-01T13:23:24.100Z,7.50
2023-03-01T13:25:59.905Z,7.60
2023-03-01T13:28:42.059Z,7.60
2023-03-01T13:31:21.012Z,7.70
2023-03-01T13:33:55.618Z,7.60
2023-03-01T13:36:47.122Z,7.50
2023-03-01T13:39:33.522Z,7.40
2023-03-01T13:42:01.241Z,7.40
2023-03-01T13:44:46.263Z,7.40
2023-03-01T13:47:15.684Z,7.30
2023-03-01T13:49:53.228Z,7.40
2023-03-01T13:52:42.518Z,7.60
2023-03-01T13:55:14.689Z,7.60
2023-03-01T13:57:44.955Z,7.30
2023-03-01T14:00:48.520Z,7.40
2023-03-01T14:03:20.749Z,7.40
2023-03-01T14:06:17.249Z,7.40
2023-03-01T14:08:46.571Z,7.40
2023-03-01T14:11:44.258Z,7.50
2023-03-01T14:14:39.997Z,7.40
2023-03-01T14:17:23.055Z,7.40
2023-03-01T14:19:57.030Z,7.50
2023-03-01T14:22:28.202Z,7.50
2023-03-01T14:25:00.782Z,7.40
2023-03-01T14:27:36.019Z,7.30
2023-03-01T14:30:21.248Z,7.20
2023-03-01T14:33:02.800Z,7.20
2023-03-01T14:35:32.643Z,7.10
2023-03-01T14:37:59.544Z,7.20
2023-03-01T14:40:30.332Z,7.30
2023-03-01T14:43:00.191Z,7.30
2023-03-01T14:45:30.174Z,7.20
2023-03-01T14:48:01.294Z,7.10
2023-03-01T14:50:33.854Z,7.10
2023-03-01T14:55:39.639Z,7.30
2023-03-01T14:58:10.171Z,7.30
2023-03-01T15:00:37.821Z,7.40
2023-03-01T15:03:19.267Z,7.50
2023-03-01T15:05:45.985Z,7.80
2023-03-01T15:08:20.395Z,8.20
2023-03-01T15:11:08.993Z,8.70
2023-03-01T15:13:39.903Z,8.20
2023-03-01T15:16:16.305Z,7.80
2023-03-01T15:18:54.831Z,7.60
2023-03-01T15:21:28.804Z,7.40
2023-03-01T15:24:20.201Z,7.20
2023-03-01T15:26:55.198Z,7.10
2023-03-01T15:29:34.384Z,6.90
2023-03-01T15:32:07.295Z,7.00
2023-03-01T15:34:38.959Z,7.00
2023-03-01T15:37:40.772Z,7.00
2023-03-01T15:40:33.888Z,6.90
2023-03-01T15:43:01.632Z,6.80
2023-03-01T15:45:31.088Z,6.80
2023-03-01T15:48:02.360Z,6.60
2023-03-01T15:50:33.875Z,6.60
2023-03-01T15:53:02.159Z,6.80
2023-03-01T15:55:31.645Z,6.60
2023-03-01T15:58:16.879Z,6.60
2023-03-01T16:00:59.311Z,6.70
2023-03-01T16:03:27.126Z,6.70
2023-03-01T16:05:54.617Z,6.60
2023-03-01T16:08:21.415Z,6.60
2023-03-01T16:10:50.839Z,6.50
2023-03-01T16:13:18.612Z,6.40
2023-03-01T16:15:45.261Z,6.30
2023-03-01T16:18:12.612Z,6.30
2023-03-01T16:20:40.052Z,6.20
2023-03-01T16:23:08.433Z,6.20
2023-03-01T16:25:37.063Z,6.20
2023-03-01T16:28:09.395Z,6.10
2023-03-01T16:30:37.337Z,6.00
2023-03-01T16:33:19.061Z,5.90
2023-03-01T16:35:51.311Z,5.90
2023-03-01T16:38:17.891Z,5.80
2023-03-01T16:40:49.389Z,5.80
2023-03-01T16:43:16.078Z,5.70
2023-03-01T16:45:45.513Z,5.60
2023-03-01T16:48:12.632Z,5.50
2023-03-01T16:50:39.305Z,5.40
2023-03-01T16:53:06.543Z,5.40
2023-03-01T16:55:33.920Z,5.30
2023-03-01T16:58:00.811Z,5.20
2023-03-01T17:00:27.987Z,5.10
2023-03-01T17:02:55.097Z,4.90
2023-03-01T17:05:25.871Z,4.90
2023-03-01T17:07:52.778Z,4.90
2023-03-01T17:10:19.480Z,4.80
2023-03-01T17:12:49.810Z,4.70
2023-03-01T17:15:16.473Z,4.60
2023-03-01T17:17:43.117Z,4.60
2023-03-01T17:20:11.278Z,4.50
2023-03-01T17:22:38.877Z,4.50
2023-03-01T17:25:09.438Z,4.50
2023-03-01T17:27:37.833Z,4.40
2023-03-01T17:30:05.699Z,4.40
2023-03-01T17:32:32.376Z,4.50
2023-03-01T17:34:59.063Z,4.40
2023-03-01T17:37:25.659Z,4.20
2023-03-01T17:39:52.228Z,4.10
2023-03-01T17:42:18.835Z,4.10
2023-03-01T17:44:45.526Z,3.90
2023-03-01T17:47:12.099Z,3.80
2023-03-01T17:49:38.702Z,3.80
2023-03-01T17:52:05.484Z,3.70
2023-03-01T17:54:33.357Z,3.70
2023-03-01T17:57:00.505Z,3.60
2023-03-01T17:59:32.748Z,3.70
2023-03-01T18:02:01.337Z,3.50
2023-03-01T18:04:28.908Z,3.70
2023-03-01T18:06:56.083Z,3.70
2023-03-01T18:09:22.647Z,3.50
2023-03-01T18:11:49.203Z,3.30
2023-03-01T18:14:15.804Z,3.20
2023-03-01T18:16:42.583Z,3.10
2023-03-01T18:19:11.574Z,3.30
2023-03-01T18:21:38.162Z,3.10
2023-03-01T18:24:05.144Z,3.00
2023-03-01T18:26:32.065Z,2.90
2023-03-01T18:29:01.185Z,2.80
2023-03-01T18:31:28.255Z,3.00
2023-03-01T18:33:55.717Z,3.00
2023-03-01T18:36:29.167Z,2.80
2023-03-01T18:38:56.731Z,2.60
2023-03-01T18:41:27.973Z,2.50
2023-03-01T18:43:55.944Z,2.50
2023-03-01T18:46:23.321Z,2.40
2023-03-01T18:48:51.329Z,2.30
2023-03-01T18:51:20.896Z,2.30
2023-03-01T18:53:48.161Z,2.10
2023-03-01T18:56:15.318Z,2.20
2023-03-01T18:58:43.094Z,2.40
2023-03-01T19:01:16.091Z,2.20
2023-03-01T19:03:42.823Z,2.00
2023-03-01T19:06:09.873Z,2.20
2023-03-01T19:08:36.622Z,2.40
2023-03-01T19:11:05.727Z,2.30
2023-03-01T19:13:34.777Z,2.30
2023-03-01T19:16:05.834Z,2.20
2023-03-01T19:18:32.868Z,2.30
2023-03-01T19:21:03.899Z,2.20
2023-03-01T19:23:31.406Z,2.30
2023-03-01T19:26:03.689Z,2.50
2023-03-01T19:28:30.519Z,2.70
2023-03-01T19:31:02.370Z,2.80
2023-03-01T19:33:30.491Z,2.90
2023-03-01T19:35:57.301Z,3.00
2023-03-01T19:38:23.938Z,3.00
2023-03-01T19:40:51.095Z,3.00
2023-03-01T19:43:17.721Z,2.90
2023-03-01T19:45:45.895Z,2.90
2023-03-01T19:48:12.971Z,2.90
2023-03-01T19:50:39.674Z,3.00
2023-03-01T19:53:06.585Z,3.00
2023-03-01T19:55:36.354Z,3.00
2023-03-01T19:58:03.428Z,3.00
2023-03-01T20:00:30.050Z,2.80
2023-03-01T20:02:56.792Z,3.10
2023-03-01T20:05:23.584Z,3.00
2023-03-01T20:07:51.111Z,2.90
2023-03-01T20:10:18.178Z,2.80
2023-03-01T20:12:44.808Z,2.60
2023-03-01T20:15:11.519Z,2.60
2023-03-01T20:17:38.071Z,2.50
2023-03-01T20:20:05.168Z,2.30
2023-03-01T20:22:31.770Z,2.10
2023-03-01T20:24:58.414Z,2.00
2023-03-01T20:27:24.973Z,1.90
2023-03-01T20:29:51.540Z,1.90
2023-03-01T20:32:18.212Z,1.80
2023-03-01T20:34:44.851Z,1.80
2023-03-01T20:37:11.935Z,1.70
2023-03-01T20:39:38.535Z,1.70
2023-03-01T20:42:05.169Z,1.60
2023-03-01T20:44:31.821Z,1.60
2023-03-01T20:46:58.708Z,1.50
2023-03-01T20:49:25.340Z,1.50
2023-03-01T20:51:51.962Z,1.40
2023-03-01T20:54:18.670Z,1.40
2023-03-01T20:56:45.304Z,1.30
2023-03-01T20:59:12.827Z,1.20
2023-03-01T21:01:39.858Z,1.20
2023-03-01T21:04:06.877Z,1.20
2023-03-01T21:06:33.844Z,1.30
2023-03-01T21:09:00.584Z,1.90
2023-03-01T21:11:27.501Z,1.90
2023-03-01T21:13:54.762Z,1.80
2023-03-01T21:16:22.204Z,1.70
2023-03-01T21:18:49.166Z,1.50
2023-03-01T21:21:21.197Z,1.50
2023-03-01T21:23:48.253Z,1.40
2023-03-01T21:26:19.293Z,1.30
2023-03-01T21:28:46.353Z,1.20
2023-03-01T21:31:19.673Z,1.10
2023-03-01T21:33:57.405Z,1.10
2023-03-01T21:36:25.347Z,0.90
2023-03-01T21:38:53.281Z,0.80
2023-03-01T21:41:23.408Z,0.70
2023-03-01T21:46:21.136Z,0.60
2023-03-01T21:48:49.556Z,0.40
2023-03-01T21:51:17.577Z,0.40
2023-03-01T21:53:44.452Z,0.30
2023-03-01T21:56:19.449Z,0.20
2023-03-01T21:58:46.275Z,0.20
2023-03-01T22:01:16.531Z,0.20
2023-03-01T22:03:47.019Z,0.10
2023-03-01T22:06:22.804Z,0.00
2023-03-01T22:08:50.813Z,-0.10
2023-03-01T22:11:19.696Z,0.00
2023-03-01T22:13:49.374Z,-0.10
2023-03-01T22:16:17.738Z,0.10
2023-03-01T22:18:44.473Z,0.10
2023-03-01T22:21:11.606Z,0.00
2023-03-01T22:23:40.077Z,0.00
2023-03-01T22:26:08.228Z,0.00
2023-03-01T22:28:35.416Z,0.00
2023-03-01T22:31:05.798Z,0.00
2023-03-01T22:33:32.697Z,0.00
2023-03-01T22:35:59.349Z,-0.10
2023-03-01T22:38:25.953Z,-0.20
2023-03-01T22:40:57.562Z,-0.20
2023-03-01T22:43:24.196Z,-0.30
2023-03-01T22:45:50.930Z,-0.40
2023-03-01T22:48:17.636Z,-0.50
2023-03-01T22:50:45.984Z,-0.60
2023-03-01T22:53:12.631Z,-0.80
2023-03-01T22:55:39.297Z,-0.80
2023-03-01T22:58:06.184Z,-0.80
2023-03-01T23:00:33.001Z,-0.70
2023-03-01T23:02:59.821Z,-0.70
2023-03-01T23:05:26.538Z,-0.70
2023-03-01T23:07:53.472Z,-0.80
2023-03-01T23:10:20.068Z,-0.90
2023-03-01T23:12:46.615Z,-1.00
2023-03-01T23:15:13.237Z,-1.00
2023-03-01T23:17:39.825Z,-1.10
2023-03-01T23:20:10.338Z,-1.00
2023-03-01T23:22:38.128Z,-1.00
2023-03-01T23:25:05.684Z,-1.00
2023-03-01T23:27:32.274Z,-0.90
2023-03-01T23:29:59.707Z,-0.90
2023-03-01T23:32:26.386Z,-0.80
2023-03-01T23:34:53.009Z,-0.70
2023-03-01T23:37:19.563Z,-0.60
2023-03-01T23:39:46.172Z,-0.60
2023-03-01T23:42:12.703Z,-0.70
2023-03-01T23:44:40.788Z,-0.70
2023-03-01T23:47:07.452Z,-0.80
2023-03-01T23:49:34.117Z,-0.90
2023-03-01T23:52:01.894Z,-0.90
2023-03-01T23:54:28.768Z,-0.90
2023-03-01T23:56:55.421Z,-1.00
2023-03-01T23:59:23.558Z,-1.00
